createdAt,value
2023-03-28T00:01:02.997Z,9.17
2023-03-28T00:03:39.592Z,9.11
2023-03-28T00:06:13.986Z,9.08
2023-03-28T00:08:42.439Z,9.06
2023-03-28T00:11:19.596Z,9.02
2023-03-28T00:13:49.881Z,8.99
2023-03-28T00:16:19.216Z,8.96
2023-03-28T00:18:52.126Z,8.97
2023-03-28T00:21:20.288Z,8.94
2023-03-28T00:23:52.668Z,8.87
2023-03-28T00:26:22.378Z,8.81
2023-03-28T00:28:52.139Z,8.78
2023-03-28T00:31:26.164Z,8.76
2023-03-28T00:33:54.592Z,8.75
2023-03-28T00:36:26.811Z,8.76
2023-03-28T00:39:01.774Z,8.72
2023-03-28T00:41:33.241Z,8.67
2023-03-28T00:44:02.031Z,8.66
2023-03-28T00:46:40.318Z,8.62
2023-03-28T00:49:16.284Z,8.60
2023-03-28T00:51:51.515Z,8.56
2023-03-28T00:54:20.459Z,8.53
2023-03-28T00:56:52.588Z,8.49
2023-03-28T00:59:24.287Z,8.47
2023-03-28T01:01:53.567Z,8.45
2023-03-28T01:04:24.686Z,8.45
2023-03-28T01:06:55.079Z,8.43
2023-03-28T01:09:24.304Z,8.42
2023-03-28T01:11:54.509Z,8.46
2023-03-28T01:14:23.795Z,8.47
2023-03-28T01:16:56.706Z,8.44
2023-03-28T01:20:01.205Z,8.38
2023-03-28T01:22:56.925Z,8.31
2023-03-28T01:25:46.293Z,8.29
2023-03-28T01:28:40.573Z,8.26
2023-03-28T01:31:24.045Z,8.25
2023-03-28T01:34:34.002Z,8.25
2023-03-28T01:37:31.850Z,8.22
2023-03-28T01:40:15.840Z,8.19
2023-03-28T01:43:13.015Z,8.14
2023-03-28T01:45:48.512Z,8.17
2023-03-28T01:48:39.041Z,8.06
2023-03-28T01:51:16.654Z,7.80
2023-03-28T01:53:53.457Z,7.44
2023-03-28T01:56:30.800Z,7.09
2023-03-28T01:59:25.323Z,6.79
2023-03-28T02:02:22.711Z,6.55
2023-03-28T02:04:52.176Z,6.39
2023-03-28T02:07:29.135Z,6.23
2023-03-28T02:10:07.240Z,6.10
2023-03-28T02:13:00.505Z,5.95
2023-03-28T02:15:51.877Z,5.83
2023-03-28T02:18:31.568Z,5.73
2023-03-28T02:21:24.042Z,5.66
2023-03-28T02:24:09.890Z,5.61
2023-03-28T02:26:53.677Z,5.52
2023-03-28T02:29:49.554Z,5.43
2023-03-28T02:32:22.103Z,5.36
2023-03-28T02:34:52.080Z,5.31
2023-03-28T02:37:42.236Z,5.25
2023-03-28T02:40:40.922Z,5.16
2023-03-28T02:43:23.843Z,4.99
2023-03-28T02:46:18.965Z,4.84
2023-03-28T02:49:16.897Z,4.67
2023-03-28T02:52:24.413Z,4.52
2023-03-28T02:55:03.502Z,4.33
2023-03-28T02:57:42.976Z,4.12
2023-03-28T03:00:16.670Z,3.92
2023-03-28T03:02:49.412Z,3.73
2023-03-28T03:05:20.533Z,3.54
2023-03-28T03:07:50.015Z,3.32
2023-03-28T03:10:18.888Z,3.10
2023-03-28T03:12:49.610Z,2.95
2023-03-28T03:15:18.306Z,2.83
2023-03-28T03:17:53.384Z,2.73
2023-03-28T03:20:27.342Z,2.64
2023-03-28T03:23:02.387Z,2.57
2023-03-28T03:25:34.707Z,2.53
2023-03-28T03:28:32.412Z,2.41
2023-03-28T03:31:02.853Z,2.35
2023-03-28T03:33:55.094Z,2.27
2023-03-28T03:36:27.307Z,2.21
2023-03-28T03:38:56.734Z,2.16
2023-03-28T03:41:25.307Z,2.12
2023-03-28T03:43:55.254Z,2.08
2023-03-28T03:46:24.072Z,2.05
2023-03-28T03:48:55.994Z,2.03
2023-03-28T03:51:25.539Z,1.97
2023-03-28T03:53:58.052Z,1.94
2023-03-28T03:56:33.394Z,1.90
2023-03-28T03:59:02.493Z,1.86
2023-03-28T04:01:35.146Z,1.82
2023-03-28T04:04:23.854Z,1.79
2023-03-28T04:07:24.610Z,1.75
2023-03-28T04:09:55.354Z,1.72
2023-03-28T04:12:26.803Z,1.70
2023-03-28T04:14:56.438Z,1.67
2023-03-28T04:17:41.704Z,1.65
2023-03-28T04:20:14.185Z,1.64
2023-03-28T04:23:06.112Z,1.56
2023-03-28T04:25:36.944Z,1.55
2023-03-28T04:28:16.287Z,1.55
2023-03-28T04:30:58.507Z,1.52
2023-03-28T04:34:05.571Z,1.45
2023-03-28T04:36:35.175Z,1.40
2023-03-28T04:39:04.951Z,1.36
2023-03-28T04:41:55.751Z,1.29
2023-03-28T04:44:47.502Z,1.26
2023-03-28T04:47:18.960Z,1.24
2023-03-28T04:49:48.974Z,1.21
2023-03-28T04:52:18.991Z,1.18
2023-03-28T04:54:48.219Z,1.20
2023-03-28T04:57:19.253Z,1.23
2023-03-28T04:59:50.679Z,1.23
2023-03-28T05:02:26.250Z,1.23
2023-03-28T05:05:02.443Z,1.25
2023-03-28T05:07:31.715Z,1.23
2023-03-28T05:14:57.278Z,1.15
2023-03-28T05:17:25.857Z,1.12
2023-03-28T05:20:19.759Z,1.13
2023-03-28T05:22:51.786Z,1.13
2023-03-28T05:25:20.558Z,1.14
2023-03-28T05:27:50.521Z,1.13
2023-03-28T05:30:19.408Z,1.16
2023-03-28T05:32:54.106Z,1.09
2023-03-28T05:35:22.961Z,1.08
2023-03-28T05:37:51.922Z,1.05
2023-03-28T05:40:20.710Z,1.02
2023-03-28T15:45:11.041Z,-0.60
2023-03-28T15:47:42.447Z,-0.19
2023-03-28T15:50:13.824Z,-0.12
2023-03-28T15:52:45.550Z,-0.07
2023-03-28T15:55:21.987Z,0.04
2023-03-28T15:57:51.732Z,0.06
2023-03-28T16:00:39.674Z,-0.06
2023-03-28T16:03:20.968Z,-0.01
2023-03-28T16:05:52.024Z,0.03
2023-03-28T16:08:25.779Z,0.04
2023-03-28T16:10:54.830Z,0.06
2023-03-28T16:13:38.944Z,0.11
2023-03-28T16:16:37.488Z,0.23
2023-03-28T16:19:24.321Z,0.26
2023-03-28T16:21:54.255Z,0.28
2023-03-28T16:24:23.223Z,0.22
2023-03-28T16:26:53.133Z,0.25
2023-03-28T16:29:22.242Z,0.29
2023-03-28T16:31:53.882Z,0.30
2023-03-28T16:34:22.290Z,0.20
2023-03-28T16:36:51.347Z,0.16
2023-03-28T16:39:20.641Z,0.14
2023-03-28T16:41:49.534Z,0.20
2023-03-28T16:44:18.418Z,0.16
2023-03-28T16:46:47.309Z,0.20
2023-03-28T16:49:19.780Z,0.19
2023-03-28T16:51:48.564Z,0.20
2023-03-28T16:54:18.272Z,0.18
2023-03-28T16:56:47.183Z,0.23
2023-03-28T16:59:15.843Z,0.26
2023-03-28T17:01:46.722Z,0.27
2023-03-28T17:04:15.792Z,0.26
2023-03-28T17:06:44.968Z,0.35
2023-03-28T17:09:14.880Z,0.37
2023-03-28T17:11:43.465Z,0.43
2023-03-28T17:14:17.170Z,0.31
2023-03-28T17:16:46.932Z,0.26
2023-03-28T17:19:19.553Z,0.29
2023-03-28T17:21:49.468Z,0.30
2023-03-28T17:24:18.963Z,0.32
2023-03-28T17:26:47.862Z,0.32
2023-03-28T17:29:18.073Z,0.33
2023-03-28T17:31:46.862Z,0.41
2023-03-28T17:34:18.206Z,0.42
2023-03-28T17:36:51.176Z,0.37
2023-03-28T17:39:19.463Z,0.37
2023-03-28T17:41:49.006Z,0.36
2023-03-28T17:44:21.854Z,0.37
2023-03-28T17:46:54.696Z,0.39
2023-03-28T17:49:23.122Z,0.41
2023-03-28T17:51:52.313Z,0.43
2023-03-28T17:54:20.872Z,0.44
2023-03-28T17:56:51.741Z,0.45
2023-03-28T17:59:21.723Z,0.46
2023-03-28T18:01:50.229Z,0.48
2023-03-28T18:04:20.326Z,0.49
2023-03-28T18:07:16.211Z,0.50
2023-03-28T18:09:52.333Z,0.50
2023-03-28T18:12:21.702Z,0.53
2023-03-28T18:14:50.505Z,0.57
2023-03-28T18:17:24.198Z,0.59
2023-03-28T18:19:53.124Z,0.57
2023-03-28T18:22:22.187Z,0.59
2023-03-28T18:24:50.605Z,0.63
2023-03-28T18:27:19.117Z,0.55
2023-03-28T18:29:51.666Z,0.52
2023-03-28T18:32:26.343Z,0.51
2023-03-28T18:34:55.420Z,0.50
2023-03-28T18:37:24.003Z,0.46
2023-03-28T18:39:52.379Z,0.45
2023-03-28T18:42:21.164Z,0.47
2023-03-28T18:44:50.126Z,0.50
2023-03-28T18:47:21.814Z,0.52
2023-03-28T18:49:50.309Z,0.53
2023-03-28T18:52:19.692Z,0.48
2023-03-28T18:54:49.504Z,0.46
2023-03-28T18:57:18.943Z,0.46
2023-03-28T18:59:48.512Z,0.50
2023-03-28T19:02:17.632Z,0.47
2023-03-28T19:04:47.158Z,0.42
2023-03-28T19:07:17.013Z,0.35
2023-03-28T19:09:46.729Z,0.35
2023-03-28T19:12:16.632Z,0.33
2023-03-28T19:14:45.755Z,0.33
2023-03-28T19:17:14.263Z,0.33
2023-03-28T19:19:42.649Z,0.31
2023-03-28T19:22:11.471Z,0.32
2023-03-28T19:24:39.847Z,0.35
2023-03-28T19:27:08.429Z,0.32
2023-03-28T19:29:36.805Z,0.32
2023-03-28T19:32:09.690Z,0.34
2023-03-28T19:34:38.777Z,0.35
2023-03-28T19:37:07.258Z,0.32
2023-03-28T19:39:35.949Z,0.27
2023-03-28T19:42:04.799Z,0.25
2023-03-28T19:44:33.573Z,0.20
2023-03-28T19:47:02.076Z,0.21
2023-03-28T19:49:34.165Z,0.29
2023-03-28T19:52:04.902Z,0.33
2023-03-28T19:54:33.090Z,0.32
2023-03-28T19:57:01.873Z,0.27
2023-03-28T19:59:30.369Z,0.27
2023-03-28T20:01:59.172Z,0.33
2023-03-28T20:04:28.318Z,0.37
2023-03-28T20:06:56.695Z,0.39
2023-03-28T20:09:28.650Z,0.36
2023-03-28T20:11:58.253Z,0.36
2023-03-28T20:14:26.632Z,0.31
2023-03-28T20:17:00.028Z,0.31
2023-03-28T20:19:29.635Z,0.32
2023-03-28T20:21:58.118Z,0.31
2023-03-28T20:24:28.440Z,0.24
2023-03-28T20:26:56.811Z,0.16
2023-03-28T20:29:30.817Z,0.16
2023-03-28T20:31:59.298Z,0.14
2023-03-28T20:34:27.877Z,0.08
2023-03-28T20:37:01.233Z,0.12
2023-03-28T20:39:34.268Z,0.15
2023-03-28T20:42:03.413Z,0.18
2023-03-28T20:44:38.348Z,0.18
2023-03-28T20:47:08.170Z,0.16
2023-03-28T20:49:38.552Z,0.15
2023-03-28T20:52:08.796Z,0.11
2023-03-28T20:54:38.009Z,0.14
2023-03-28T20:57:26.216Z,0.16
2023-03-28T20:59:58.241Z,0.19
2023-03-28T21:02:33.621Z,0.18
2023-03-28T21:05:03.735Z,0.08
2023-03-28T21:07:35.146Z,-0.03
2023-03-28T21:10:04.184Z,-0.03
2023-03-28T21:12:33.019Z,-0.00
2023-03-28T21:15:07.027Z,0.03
2023-03-28T21:17:36.977Z,-0.05
2023-03-28T21:20:10.510Z,-0.08
2023-03-28T21:22:39.646Z,-0.07
2023-03-28T21:25:10.711Z,-0.13
2023-03-28T21:27:39.989Z,-0.09
2023-03-28T21:30:11.802Z,-0.07
2023-03-28T21:33:01.501Z,-0.19
2023-03-28T21:35:31.769Z,-0.22
2023-03-28T21:38:00.623Z,-0.19
2023-03-28T21:40:28.894Z,-0.16
2023-03-28T21:42:59.313Z,-0.15
2023-03-28T21:45:27.888Z,-0.20
2023-03-28T21:47:59.092Z,-0.19
2023-03-28T21:50:31.609Z,-0.18
2023-03-28T21:53:00.189Z,-0.18
2023-03-28T21:55:29.170Z,-0.17
2023-03-28T21:57:58.180Z,-0.16
2023-03-28T22:00:26.877Z,-0.18
2023-03-28T22:02:56.404Z,-0.20
2023-03-28T22:05:29.545Z,-0.23
2023-03-28T22:07:58.866Z,-0.59
2023-03-28T22:10:27.641Z,-0.50
2023-03-28T22:12:58.998Z,-0.52
2023-03-28T22:15:27.823Z,-0.53
2023-03-28T22:17:58.496Z,-0.63
2023-03-28T22:20:32.818Z,-0.52
2023-03-28T22:23:01.616Z,-0.48
2023-03-28T22:25:34.931Z,-0.48
2023-03-28T22:28:04.917Z,-0.53
2023-03-28T22:30:34.113Z,-0.47
2023-03-28T22:33:04.225Z,-0.46
2023-03-28T22:35:33.770Z,-0.64
2023-03-28T22:38:02.568Z,-0.60
2023-03-28T22:40:31.952Z,-0.58
2023-03-28T22:43:00.603Z,-0.59
2023-03-28T22:45:34.715Z,-0.60
2023-03-28T22:48:04.833Z,-0.64
2023-03-28T22:50:33.920Z,-0.67
2023-03-28T22:53:04.657Z,-0.68
2023-03-28T22:55:33.540Z,-0.68
2023-03-28T22:58:05.502Z,-0.67
2023-03-28T23:00:34.698Z,-0.71
2023-03-28T23:03:03.114Z,-0.73
2023-03-28T23:05:32.152Z,-0.76
2023-03-28T23:08:01.464Z,-0.76
2023-03-28T23:10:30.044Z,-0.78
2023-03-28T23:12:58.626Z,-0.81
2023-03-28T23:15:27.330Z,-0.84
2023-03-28T23:17:56.615Z,-0.87
2023-03-28T23:20:26.877Z,-0.90
2023-03-28T23:22:55.623Z,-0.93
2023-03-28T23:25:24.402Z,-0.96
2023-03-28T23:27:53.401Z,-0.96
2023-03-28T23:30:22.179Z,-0.97
2023-03-28T23:32:50.731Z,-1.00
2023-03-28T23:35:19.189Z,-0.99
2023-03-28T23:37:47.735Z,-1.08
2023-03-28T23:40:17.422Z,-1.13
2023-03-28T23:42:46.547Z,-1.08
2023-03-28T23:45:15.764Z,-1.13
2023-03-28T23:47:44.664Z,-1.14
2023-03-28T23:50:14.520Z,-1.14
2023-03-28T23:52:44.217Z,-1.16
2023-03-28T23:55:16.699Z,-1.19
2023-03-28T23:57:47.413Z,-1.29
